Pagina principale
METAR-TAF:

METAR-TAF

Aeroporti :

Vandenberg Airport

Tampa, Florida, Stati Uniti

latitudine: 28-00-50N, longitudine: 082-20-43W, altezza: 7 m

Osservazione

Il bollettino è stato emesso 15 minuti fa, alle 13:35 UTC
Vento 5 kt da nord
Temperature 13°C
Umidità 82%
Pressione 1016 hPa
Visibilità: 16.1 km
Nuvoloso ad un'altezza di 2800 ft

METAR: KVDF 281335Z AUTO 01005KT 10SM BKN028 13/10 A3001 RMK AO2

Ora: 08:50 (13:50 UTC)


TAF: mancante

Osservazioni e previsioni meteorologiche di più di 4000 aeroporti (messaggi METAR e TAF).

Le stazioni disponibili sono rappresentate dai dischi gialli e rossi sulla carta.

Puntare il mouse per vedere il nome della stazione.

Clicca sopra per visualizzare le osservazioni e previsioni meteorologiche.

Per cambiare la mappa : fare clic sui pulsanti verdi con una croce nera per ingrandire, il pulsante verde con un trattino per diminuire, o sulla freccia verde per le mappe adiacenti.


METAR-TAF: